createdAt,value
2022-08-10T00:01:55.243Z,36.05
2022-08-10T00:04:23.740Z,36.26
2022-08-10T00:06:52.130Z,35.94
2022-08-10T00:09:19.591Z,35.86
2022-08-10T00:11:47.041Z,36.01
2022-08-10T00:14:14.483Z,36.07
2022-08-10T00:16:41.881Z,35.91
2022-08-10T00:19:10.929Z,36.00
2022-08-10T00:21:38.404Z,35.64
2022-08-10T00:24:06.011Z,35.74
2022-08-10T00:27:52.094Z,36.02
2022-08-10T00:29:22.119Z,36.74
2022-08-10T00:31:56.036Z,36.97
2022-08-10T00:34:28.529Z,37.33
2022-08-10T00:36:56.358Z,37.38
2022-08-10T00:39:24.450Z,37.53
2022-08-10T00:42:06.962Z,37.76
2022-08-10T00:44:36.588Z,38.08
2022-08-10T00:47:04.379Z,37.65
2022-08-10T00:49:33.904Z,37.62
2022-08-10T00:52:01.090Z,37.91
2022-08-10T00:54:28.671Z,37.99
2022-08-10T00:57:17.563Z,37.61
2022-08-10T00:59:58.378Z,37.88
2022-08-10T01:02:28.913Z,38.00
2022-08-10T01:05:01.740Z,37.87
2022-08-10T01:08:02.965Z,37.77
2022-08-10T01:10:41.802Z,38.04
2022-08-10T01:13:14.555Z,37.85
2022-08-10T01:15:51.058Z,37.64
2022-08-10T01:18:25.457Z,37.12
2022-08-10T01:21:12.952Z,37.13
2022-08-10T01:24:02.015Z,36.95
2022-08-10T01:26:42.967Z,36.23
2022-08-10T01:29:44.874Z,35.39
2022-08-10T01:32:17.685Z,34.90
2022-08-10T01:34:51.332Z,36.51
2022-08-10T01:37:22.889Z,37.40
2022-08-10T01:39:56.324Z,37.59
2022-08-10T01:42:25.301Z,37.95
2022-08-10T01:44:56.424Z,37.70
2022-08-10T01:47:29.940Z,37.69
2022-08-10T01:50:02.645Z,38.04
2022-08-10T01:52:32.336Z,37.78
2022-08-10T01:54:59.891Z,38.46
2022-08-10T01:57:31.589Z,38.54
2022-08-10T02:00:02.544Z,38.25
2022-08-10T02:02:35.664Z,38.76
2022-08-10T02:05:06.379Z,38.35
2022-08-10T02:07:36.429Z,38.68
2022-08-10T02:10:10.920Z,38.65
2022-08-10T02:12:39.753Z,38.51
2022-08-10T02:15:11.158Z,38.30
2022-08-10T02:17:58.637Z,38.50
2022-08-10T02:20:35.234Z,37.98
2022-08-10T02:23:07.298Z,38.08
2022-08-10T02:25:41.438Z,38.06
2022-08-10T02:28:30.208Z,38.02
2022-08-10T02:31:02.965Z,37.80
2022-08-10T02:33:38.123Z,38.01
2022-08-10T02:36:09.145Z,37.87
2022-08-10T02:38:58.874Z,38.26
2022-08-10T02:42:18.086Z,38.31
2022-08-10T02:45:27.647Z,38.30
2022-08-10T02:47:20.364Z,38.49
2022-08-10T02:49:55.882Z,38.29
2022-08-10T02:52:29.457Z,38.16
2022-08-10T02:55:06.072Z,38.35
2022-08-10T02:58:13.284Z,38.20
2022-08-10T03:00:44.113Z,38.18
2022-08-10T03:03:15.887Z,37.92
2022-08-10T03:05:47.804Z,38.13
2022-08-10T03:08:21.494Z,38.19
2022-08-10T03:10:51.092Z,38.59
2022-08-10T03:13:19.563Z,38.77
2022-08-10T03:15:49.337Z,38.99
2022-08-10T03:18:18.723Z,39.16
2022-08-10T03:20:49.315Z,39.53
2022-08-10T03:23:19.295Z,39.79
2022-08-10T03:25:52.739Z,39.17
2022-08-10T03:28:22.679Z,39.49
2022-08-10T03:30:50.926Z,39.38
2022-08-10T03:33:20.640Z,39.10
2022-08-10T03:36:42.532Z,39.17
2022-08-10T03:38:37.782Z,38.87
2022-08-10T03:41:08.625Z,38.89
2022-08-10T03:43:36.885Z,38.90
2022-08-10T03:46:08.137Z,38.59
2022-08-10T03:48:49.455Z,38.94
2022-08-10T03:51:20.147Z,38.42
2022-08-10T03:54:02.740Z,38.53
2022-08-10T03:56:35.204Z,38.25
2022-08-10T03:59:03.012Z,38.20
2022-08-10T04:02:46.908Z,38.10
2022-08-10T04:04:23.757Z,38.33
2022-08-10T04:06:55.922Z,38.19
2022-08-10T04:09:43.341Z,38.11
2022-08-10T04:12:12.787Z,38.05
2022-08-10T04:14:51.234Z,38.07
2022-08-10T04:18:00.242Z,38.92
2022-08-10T04:20:12.022Z,38.01
2022-08-10T04:22:43.504Z,38.03
2022-08-10T04:25:12.885Z,38.05
2022-08-10T04:27:40.042Z,37.95
2022-08-10T04:30:08.814Z,38.05
2022-08-10T04:32:37.719Z,37.90
2022-08-10T04:35:06.998Z,37.92
2022-08-10T04:37:35.460Z,37.77
2022-08-10T04:40:05.654Z,37.72
2022-08-10T04:42:53.086Z,37.91
2022-08-10T04:45:48.931Z,37.33
2022-08-10T04:48:42.716Z,37.45
2022-08-10T04:51:04.791Z,37.33
2022-08-10T04:53:32.644Z,36.99
2022-08-10T04:56:01.474Z,36.97
2022-08-10T04:58:29.207Z,37.04
2022-08-10T05:00:56.787Z,36.81
2022-08-10T05:03:24.214Z,36.96
2022-08-10T05:05:51.633Z,36.21
2022-08-10T05:08:21.808Z,36.23
2022-08-10T05:10:49.312Z,36.36
2022-08-10T05:13:18.208Z,36.30
2022-08-10T05:15:45.625Z,35.61
2022-08-10T05:18:13.035Z,35.99
2022-08-10T05:20:40.470Z,36.14
2022-08-10T05:23:07.841Z,35.78
2022-08-10T05:25:37.422Z,35.35
2022-08-10T05:28:06.707Z,35.58
2022-08-10T05:30:36.019Z,35.19
2022-08-10T05:33:08.056Z,35.56
2022-08-10T05:35:56.242Z,35.77
2022-08-10T05:38:25.768Z,35.21
2022-08-10T05:40:53.995Z,35.22
2022-08-10T05:43:22.507Z,35.30
2022-08-10T05:46:18.593Z,35.11
2022-08-10T05:48:56.697Z,34.94
2022-08-10T05:51:28.995Z,35.50
2022-08-10T05:54:04.211Z,34.48
2022-08-10T05:56:56.016Z,35.00
2022-08-10T06:00:11.248Z,35.24
2022-08-10T06:02:32.754Z,35.47
2022-08-10T06:05:08.168Z,35.45
2022-08-10T06:07:39.340Z,34.75
2022-08-10T06:10:10.311Z,34.73
2022-08-10T06:12:55.614Z,35.30
2022-08-10T06:15:51.396Z,34.95
2022-08-10T06:18:14.561Z,35.11
2022-08-10T06:20:42.697Z,35.46
2022-08-10T06:23:11.633Z,34.47
2022-08-10T06:26:10.219Z,34.64
2022-08-10T06:28:30.083Z,35.23
2022-08-10T06:31:00.466Z,34.57
2022-08-10T06:33:33.554Z,34.45
2022-08-10T06:36:03.042Z,34.24
2022-08-10T06:38:33.832Z,34.45
2022-08-10T06:41:07.402Z,33.52
2022-08-10T06:43:36.700Z,34.20
2022-08-10T06:46:12.501Z,33.60
2022-08-10T06:48:49.474Z,34.19
2022-08-10T06:51:22.881Z,33.30
2022-08-10T06:53:55.238Z,33.47
2022-08-10T06:56:37.491Z,33.58
2022-08-10T06:59:21.091Z,32.92
2022-08-10T07:01:54.487Z,33.17
2022-08-10T07:04:32.567Z,32.53
2022-08-10T07:07:04.284Z,33.07
2022-08-10T07:09:33.269Z,33.39
2022-08-10T07:12:08.632Z,33.17
2022-08-10T07:14:39.920Z,32.64
2022-08-10T07:17:15.747Z,32.99
2022-08-10T07:19:49.563Z,32.93
2022-08-10T07:23:01.474Z,33.00
2022-08-10T07:25:10.985Z,31.90
2022-08-10T07:27:59.914Z,31.68
2022-08-10T07:30:28.862Z,31.71
2022-08-10T07:32:57.055Z,31.93
2022-08-10T07:35:33.205Z,31.93
2022-08-10T07:38:07.706Z,31.90
2022-08-10T07:40:36.401Z,31.46
2022-08-10T07:43:05.344Z,31.38
2022-08-10T07:45:35.561Z,30.19
2022-08-10T07:48:08.054Z,29.99
2022-08-10T07:50:40.513Z,31.12
2022-08-10T07:53:12.569Z,30.49
2022-08-10T07:56:02.161Z,31.21
2022-08-10T07:58:34.529Z,30.70
2022-08-10T08:01:02.293Z,31.04
2022-08-10T08:03:31.306Z,30.38
2022-08-10T08:06:09.025Z,30.56
2022-08-10T08:08:42.627Z,30.32
2022-08-10T08:11:26.333Z,30.35
2022-08-10T08:13:56.450Z,29.88
2022-08-10T08:16:24.620Z,30.07
2022-08-10T08:19:27.264Z,30.47
2022-08-10T08:24:10.494Z,30.09
2022-08-10T08:24:35.086Z,30.10
2022-08-10T08:27:03.831Z,30.33
2022-08-10T08:29:35.351Z,30.05
2022-08-10T08:32:04.293Z,30.23
2022-08-10T08:34:32.838Z,29.54
2022-08-10T08:37:04.312Z,29.08
2022-08-10T08:39:32.038Z,29.62
2022-08-10T08:42:18.534Z,30.42
2022-08-10T08:45:03.592Z,29.61
2022-08-10T08:48:06.780Z,29.68
2022-08-10T08:50:47.269Z,28.86
2022-08-10T08:54:00.999Z,29.64
2022-08-10T08:56:25.436Z,29.36
2022-08-10T08:59:11.375Z,29.83
2022-08-10T09:02:09.261Z,29.21
2022-08-10T09:04:47.402Z,28.53
2022-08-10T09:08:01.875Z,28.14
2022-08-10T09:10:43.501Z,28.55
2022-08-10T09:13:17.519Z,28.59
2022-08-10T09:15:57.485Z,28.43
2022-08-10T09:18:37.066Z,28.41
2022-08-10T09:21:10.067Z,28.77
2022-08-10T09:24:03.996Z,28.24
2022-08-10T09:26:52.136Z,28.41
2022-08-10T09:29:27.150Z,28.56
2022-08-10T09:36:13.563Z,28.26
2022-08-10T09:36:29.912Z,28.07
2022-08-10T09:38:03.471Z,28.81
2022-08-10T09:41:00.498Z,27.84
2022-08-10T09:43:36.434Z,28.21
2022-08-10T09:46:12.249Z,28.67
2022-08-10T09:48:45.915Z,28.05
2022-08-10T09:54:27.309Z,27.37
2022-08-10T09:57:44.402Z,27.86
2022-08-10T10:00:05.153Z,28.18
2022-08-10T10:02:40.684Z,28.33
2022-08-10T10:05:27.371Z,27.74
2022-08-10T10:08:02.274Z,27.08
2022-08-10T10:10:36.114Z,28.21
2022-08-10T10:13:41.597Z,27.68
2022-08-10T10:16:28.211Z,27.42
2022-08-10T10:19:08.023Z,27.32
2022-08-10T10:21:55.191Z,27.17
2022-08-10T10:24:34.980Z,27.11
2022-08-10T10:27:16.498Z,26.78
2022-08-10T10:30:06.257Z,27.34
2022-08-10T10:32:41.572Z,27.02
2022-08-10T10:35:21.418Z,26.66
2022-08-10T10:38:00.780Z,27.21
2022-08-10T10:40:39.664Z,27.89
2022-08-10T10:43:21.056Z,28.25
2022-08-10T10:45:57.923Z,26.66
2022-08-10T10:48:37.769Z,26.54
2022-08-10T10:51:12.623Z,26.58
2022-08-10T10:53:47.783Z,26.82
2022-08-10T10:56:22.512Z,26.39
2022-08-10T10:59:54.362Z,26.79
2022-08-10T11:02:09.604Z,27.08
2022-08-10T11:04:45.493Z,27.29
2022-08-10T11:07:22.901Z,27.20
2022-08-10T11:10:08.685Z,26.34
2022-08-10T11:12:51.007Z,26.84
2022-08-10T11:15:24.533Z,27.18
2022-08-10T11:17:58.187Z,26.49
2022-08-10T11:20:38.561Z,26.32
2022-08-10T11:23:20.371Z,26.48
2022-08-10T11:25:56.020Z,27.43
2022-08-10T11:28:31.365Z,27.15
2022-08-10T11:31:11.267Z,26.15
2022-08-10T11:34:04.075Z,26.75
2022-08-10T11:36:47.248Z,26.46
2022-08-10T11:39:19.849Z,25.89
2022-08-10T11:42:06.721Z,26.44
2022-08-10T11:44:46.951Z,26.40
2022-08-10T11:47:19.209Z,26.95
2022-08-10T11:49:52.518Z,26.08
2022-08-10T11:52:29.208Z,26.72
2022-08-10T11:55:02.377Z,26.49
2022-08-10T11:57:53.328Z,26.03
2022-08-10T12:00:19.954Z,26.43
2022-08-10T12:02:58.128Z,25.74
2022-08-10T12:05:52.632Z,26.17
2022-08-10T12:10:09.881Z,25.84
2022-08-10T12:11:11.077Z,27.01
2022-08-10T12:14:04.349Z,26.48
2022-08-10T12:16:39.270Z,26.11
2022-08-10T12:19:15.834Z,25.87
2022-08-10T12:21:47.375Z,27.05
2022-08-10T12:24:24.103Z,26.24
2022-08-10T12:26:59.341Z,26.92
2022-08-10T12:29:37.257Z,26.94
2022-08-10T12:32:13.328Z,26.95
2022-08-10T12:34:50.815Z,26.81
2022-08-10T12:37:24.499Z,25.42
2022-08-10T12:40:33.421Z,26.42
2022-08-10T12:43:13.311Z,26.14
2022-08-10T12:46:04.357Z,26.60
2022-08-10T12:48:39.020Z,26.01
2022-08-10T12:51:15.076Z,25.49
2022-08-10T12:53:50.272Z,25.30
2022-08-10T12:56:25.919Z,25.61
2022-08-10T12:58:57.772Z,26.10
2022-08-10T13:02:06.304Z,26.58
2022-08-10T13:04:27.426Z,26.26
2022-08-10T13:06:55.779Z,26.04
2022-08-10T13:09:25.295Z,25.45
2022-08-10T13:12:36.257Z,26.05
2022-08-10T13:14:49.780Z,26.20
2022-08-10T13:17:24.018Z,26.17
2022-08-10T13:20:12.894Z,25.93
2022-08-10T13:22:43.032Z,26.39
2022-08-10T13:25:10.789Z,25.69
2022-08-10T13:28:00.644Z,26.11
2022-08-10T13:30:37.796Z,26.61
2022-08-10T13:33:08.029Z,26.67
2022-08-10T13:35:37.634Z,26.67
2022-08-10T13:38:07.164Z,25.92
2022-08-10T13:40:38.567Z,26.22
2022-08-10T13:43:09.130Z,25.08
2022-08-10T13:45:46.405Z,25.80
2022-08-10T13:48:20.637Z,26.51
2022-08-10T13:50:49.928Z,25.78
2022-08-10T13:53:19.221Z,26.14
2022-08-10T13:55:55.380Z,26.67
2022-08-10T13:58:30.601Z,26.10
2022-08-10T14:01:00.493Z,26.40
2022-08-10T14:03:34.410Z,27.47
2022-08-10T14:06:04.455Z,26.82
2022-08-10T14:08:33.128Z,27.65
2022-08-10T14:11:10.373Z,27.09
2022-08-10T14:13:45.418Z,27.27
2022-08-10T14:16:14.227Z,27.09
2022-08-10T14:18:42.912Z,27.56
2022-08-10T14:21:11.018Z,28.14
2022-08-10T14:23:43.095Z,28.43
2022-08-10T14:26:24.400Z,28.35
2022-08-10T14:28:56.380Z,28.48
2022-08-10T14:31:30.164Z,28.76
2022-08-10T14:34:00.095Z,28.39
2022-08-10T14:36:38.169Z,29.25
2022-08-10T14:39:07.069Z,28.71
2022-08-10T14:42:01.130Z,28.99
2022-08-10T14:44:31.194Z,29.53
2022-08-10T14:47:52.048Z,29.27
2022-08-10T14:49:58.069Z,29.07
2022-08-10T14:52:28.462Z,29.61
2022-08-10T14:54:57.254Z,29.09
2022-08-10T14:58:16.656Z,29.44
2022-08-10T15:00:39.076Z,30.03
2022-08-10T15:03:07.071Z,29.59
2022-08-10T15:05:59.125Z,30.21
2022-08-10T15:08:28.643Z,30.11
2022-08-10T15:10:58.279Z,30.46
2022-08-10T15:13:34.398Z,30.20
2022-08-10T15:16:12.951Z,30.42
2022-08-10T15:18:58.702Z,29.96
2022-08-10T15:21:42.318Z,30.10
2022-08-10T15:24:27.253Z,29.96
2022-08-10T15:26:57.632Z,29.92
2022-08-10T15:29:26.649Z,30.21
2022-08-10T15:31:56.215Z,30.36
2022-08-10T15:34:28.934Z,30.82
2022-08-10T15:37:02.453Z,30.83
2022-08-10T15:40:23.897Z,30.70
2022-08-10T15:42:54.751Z,30.98
2022-08-10T15:45:26.626Z,30.81
2022-08-10T15:48:03.377Z,30.65
2022-08-10T15:50:40.153Z,30.98
2022-08-10T15:53:15.917Z,30.94
2022-08-10T15:55:55.087Z,31.86
2022-08-10T15:58:39.496Z,31.60
2022-08-10T16:02:13.768Z,31.47
2022-08-10T16:04:08.481Z,31.87
2022-08-10T16:06:41.845Z,31.91
2022-08-10T16:10:24.516Z,31.66
2022-08-10T16:12:10.717Z,32.17
2022-08-10T16:14:41.650Z,31.53
2022-08-10T16:17:11.753Z,31.83
2022-08-10T16:19:48.673Z,32.47
2022-08-10T16:22:34.847Z,31.60
2022-08-10T16:25:14.348Z,32.53
2022-08-10T16:27:44.046Z,32.06
2022-08-10T16:30:12.434Z,32.17
2022-08-10T16:32:40.735Z,32.67
2022-08-10T16:35:15.980Z,32.18
2022-08-10T16:37:57.366Z,32.51
2022-08-10T16:40:28.844Z,32.36
2022-08-10T16:42:57.689Z,32.69
2022-08-10T16:45:31.800Z,32.62
2022-08-10T16:48:01.035Z,32.96
2022-08-10T16:50:33.632Z,33.27
2022-08-10T16:53:02.360Z,32.83
2022-08-10T16:55:49.919Z,33.23
2022-08-10T16:58:24.005Z,33.05
2022-08-10T17:00:53.280Z,33.25
2022-08-10T17:04:06.513Z,33.26
2022-08-10T17:06:26.942Z,33.25
2022-08-10T17:08:57.840Z,32.86
2022-08-10T17:11:36.284Z,32.98
2022-08-10T17:14:08.606Z,32.93
2022-08-10T17:16:39.002Z,32.85
2022-08-10T17:19:12.963Z,33.36
2022-08-10T17:21:51.685Z,33.62
2022-08-10T17:24:23.298Z,33.76
2022-08-10T17:26:51.631Z,32.93
2022-08-10T17:29:53.212Z,33.67
2022-08-10T17:32:19.733Z,33.93
2022-08-10T17:34:52.005Z,33.46
2022-08-10T17:37:24.601Z,33.50
2022-08-10T17:39:54.506Z,34.05
2022-08-10T17:42:23.066Z,34.07
2022-08-10T17:44:53.273Z,33.80
2022-08-10T17:47:26.356Z,35.55
2022-08-10T17:49:56.585Z,34.59
2022-08-10T17:52:27.715Z,34.60
2022-08-10T17:54:57.784Z,35.38
2022-08-10T17:57:27.622Z,35.08
2022-08-10T17:59:56.539Z,35.19
2022-08-10T18:02:26.914Z,34.58
2022-08-10T18:04:57.058Z,34.52
2022-08-10T18:07:33.015Z,35.08
2022-08-10T18:10:02.091Z,35.22
2022-08-10T18:12:38.918Z,34.81
2022-08-10T18:15:12.361Z,34.59
2022-08-10T18:17:46.075Z,34.83
2022-08-10T18:20:20.096Z,34.63
2022-08-10T18:22:59.174Z,34.73
2022-08-10T18:25:31.167Z,34.49
2022-08-10T18:28:05.147Z,34.19
2022-08-10T18:30:36.507Z,34.28
2022-08-10T18:33:09.358Z,34.28
2022-08-10T18:35:38.770Z,34.10
2022-08-10T18:38:09.585Z,34.72
2022-08-10T18:40:41.540Z,34.24
2022-08-10T18:44:10.786Z,33.82
2022-08-10T18:46:00.123Z,33.84
2022-08-10T18:48:37.468Z,33.00
2022-08-10T18:51:06.787Z,33.70
2022-08-10T18:53:38.722Z,33.25
2022-08-10T18:56:16.171Z,33.44
2022-08-10T18:59:02.539Z,33.45
2022-08-10T19:01:48.768Z,33.20
2022-08-10T19:04:31.198Z,33.08
2022-08-10T19:07:27.171Z,32.96
2022-08-10T19:10:10.043Z,33.15
2022-08-10T19:12:48.461Z,33.40
2022-08-10T19:15:26.202Z,32.83
2022-08-10T19:18:13.936Z,32.63
2022-08-10T19:20:49.315Z,32.32
2022-08-10T19:23:33.518Z,32.30
2022-08-10T19:26:39.427Z,32.75
2022-08-10T19:30:00.837Z,32.87
2022-08-10T19:32:23.974Z,32.47
2022-08-10T19:35:02.953Z,31.86
2022-08-10T19:37:40.056Z,32.08
2022-08-10T19:40:43.237Z,31.97
2022-08-10T19:43:59.870Z,31.97
2022-08-10T19:46:18.059Z,31.64
2022-08-10T19:48:55.556Z,32.36
2022-08-10T19:51:28.779Z,32.07
2022-08-10T19:54:05.010Z,31.90
2022-08-10T19:56:45.395Z,32.02
2022-08-10T20:00:16.235Z,31.92
2022-08-10T20:02:19.929Z,32.01
2022-08-10T20:05:01.811Z,31.99
2022-08-10T20:07:36.409Z,31.77
2022-08-10T20:10:11.561Z,31.76
2022-08-10T20:12:45.715Z,32.40
2022-08-10T20:15:25.939Z,31.60
2022-08-10T20:17:56.469Z,31.51
2022-08-10T20:20:31.613Z,31.16
2022-08-10T20:23:14.129Z,31.47
2022-08-10T20:25:47.026Z,32.14
2022-08-10T20:28:20.036Z,31.50
2022-08-10T20:30:51.938Z,31.64
2022-08-10T20:33:27.710Z,31.73
2022-08-10T20:36:02.546Z,31.96
2022-08-10T20:38:36.224Z,32.00
2022-08-10T20:41:16.363Z,31.52
2022-08-10T20:43:52.626Z,32.13
2022-08-10T20:46:28.379Z,32.29
2022-08-10T20:48:59.981Z,32.20
2022-08-10T20:51:58.635Z,32.32
2022-08-10T20:54:29.446Z,32.28
2022-08-10T20:58:03.852Z,32.40
2022-08-10T21:00:07.192Z,33.88
2022-08-10T21:02:54.461Z,33.03
2022-08-10T21:05:30.496Z,32.95
2022-08-10T21:08:08.999Z,32.74
2022-08-10T21:11:02.019Z,31.44
2022-08-10T21:13:52.692Z,31.31
2022-08-10T21:16:48.982Z,31.14
2022-08-10T21:19:52.178Z,31.37
2022-08-10T21:22:25.863Z,31.24
2022-08-10T21:25:00.936Z,31.22
2022-08-10T21:28:08.420Z,30.97
2022-08-10T21:31:04.527Z,31.49
2022-08-10T21:33:42.800Z,31.16
2022-08-10T21:36:17.875Z,31.11
2022-08-10T21:38:53.972Z,31.02
2022-08-10T21:41:57.794Z,31.29
2022-08-10T21:44:50.805Z,31.09
2022-08-10T21:47:43.490Z,30.84
2022-08-10T21:50:27.643Z,31.26
2022-08-10T21:53:06.990Z,31.12
2022-08-10T21:55:57.366Z,31.70
2022-08-10T21:58:30.849Z,31.02
2022-08-10T22:01:02.010Z,31.71
2022-08-10T22:03:39.362Z,31.28
2022-08-10T22:06:09.506Z,31.47
2022-08-10T22:08:44.531Z,31.46
2022-08-10T22:11:20.258Z,31.47
2022-08-10T22:13:50.981Z,31.79
2022-08-10T22:16:29.656Z,31.75
2022-08-10T22:19:02.455Z,31.74
2022-08-10T22:21:45.951Z,31.38
2022-08-10T22:24:26.875Z,31.81
2022-08-10T22:27:46.586Z,31.65
2022-08-10T22:30:03.440Z,31.83
2022-08-10T22:32:42.591Z,31.96
2022-08-10T22:35:48.203Z,31.59
2022-08-10T22:38:25.976Z,31.59
2022-08-10T22:41:02.484Z,31.93
2022-08-10T22:43:35.768Z,32.62
2022-08-10T22:46:07.111Z,32.36
2022-08-10T22:48:42.789Z,32.06
2022-08-10T22:51:17.335Z,31.87
2022-08-10T22:53:52.577Z,31.71
2022-08-10T22:56:22.233Z,32.02
2022-08-10T22:58:50.179Z,32.10
2022-08-10T23:01:23.007Z,32.40
2022-08-10T23:03:53.413Z,32.00
2022-08-10T23:06:28.413Z,32.23
2022-08-10T23:09:00.270Z,32.15
2022-08-10T23:11:32.904Z,32.29
2022-08-10T23:14:03.395Z,32.73
2022-08-10T23:16:35.593Z,32.28
2022-08-10T23:19:13.519Z,32.42
2022-08-10T23:22:04.007Z,32.40
2022-08-10T23:24:36.649Z,32.37
2022-08-10T23:27:12.713Z,32.18
2022-08-10T23:30:03.730Z,32.37
2022-08-10T23:32:43.009Z,32.14
2022-08-10T23:36:31.497Z,32.40
2022-08-10T23:38:03.632Z,32.37
2022-08-10T23:40:32.459Z,32.02
2022-08-10T23:43:03.448Z,31.86
2022-08-10T23:45:53.568Z,32.02
2022-08-10T23:48:21.406Z,31.87
2022-08-10T23:50:58.402Z,32.34
2022-08-10T23:53:30.506Z,33.28
2022-08-10T23:56:03.926Z,33.08
2022-08-10T23:58:40.243Z,33.24
